createdAt,value
2022-10-31T00:01:29.761Z,97971.38
2022-10-31T00:03:56.329Z,97964.63
2022-10-31T00:06:23.880Z,97971.22
2022-10-31T00:08:55.437Z,97964.81
2022-10-31T00:11:22.010Z,97964.16
2022-10-31T00:13:48.498Z,97957.56
2022-10-31T00:16:20.151Z,97963.50
2022-10-31T00:18:51.374Z,97959.16
2022-10-31T00:21:18.450Z,97966.25
2022-10-31T00:23:45.098Z,97946.78
2022-10-31T00:26:11.665Z,97943.72
2022-10-31T00:28:38.327Z,97941.47
2022-10-31T00:31:07.404Z,97949.50
2022-10-31T00:33:38.834Z,97936.97
2022-10-31T00:36:06.905Z,97934.72
2022-10-31T00:38:33.916Z,97943.09
2022-10-31T00:41:00.734Z,97937.59
2022-10-31T00:43:27.258Z,97931.16
2022-10-31T00:45:53.834Z,97929.53
2022-10-31T00:48:20.413Z,97936.31
2022-10-31T00:50:46.939Z,97925.19
2022-10-31T00:53:13.553Z,97918.59
2022-10-31T00:55:40.106Z,97918.56
2022-10-31T00:58:06.575Z,97913.91
2022-10-31T01:00:33.098Z,97911.00
2022-10-31T01:02:59.901Z,97900.84
2022-10-31T01:05:26.937Z,97899.88
2022-10-31T01:07:53.450Z,97894.56
2022-10-31T01:10:20.023Z,97892.91
2022-10-31T01:12:48.912Z,97891.13
2022-10-31T01:15:19.060Z,97891.75
2022-10-31T01:17:45.617Z,97893.47
2022-10-31T01:20:14.439Z,97889.09
2022-10-31T01:22:40.958Z,97894.91
2022-10-31T01:25:08.758Z,97898.75
2022-10-31T01:27:35.849Z,97892.94
2022-10-31T01:30:02.319Z,97890.69
2022-10-31T01:32:29.866Z,97891.97
2022-10-31T01:34:56.437Z,97894.56
2022-10-31T01:37:22.945Z,97893.97
2022-10-31T01:39:49.882Z,97893.00
2022-10-31T01:42:19.810Z,97891.13
2022-10-31T01:44:51.529Z,97898.53
2022-10-31T01:47:22.472Z,97894.81
2022-10-31T01:49:58.685Z,97890.13
2022-10-31T01:52:41.550Z,97879.97
2022-10-31T01:55:18.522Z,97897.16
2022-10-31T01:57:49.272Z,97892.50
2022-10-31T02:00:16.159Z,97879.78
2022-10-31T02:02:44.824Z,97873.66
2022-10-31T02:05:17.051Z,97878.81
2022-10-31T02:07:49.493Z,97887.53
2022-10-31T02:10:16.430Z,97880.28
2022-10-31T02:12:43.277Z,97881.44
2022-10-31T02:15:10.557Z,97873.19
2022-10-31T02:17:37.065Z,97878.63
2022-10-31T02:20:17.434Z,97879.19
2022-10-31T02:23:13.147Z,97882.00
2022-10-31T02:26:16.999Z,97878.88
2022-10-31T02:29:20.961Z,97867.81
2022-10-31T02:32:03.295Z,97868.06
2022-10-31T02:34:39.106Z,97863.06
2022-10-31T02:37:20.509Z,97857.81
2022-10-31T02:40:22.245Z,97858.09
2022-10-31T02:42:57.880Z,97856.44
2022-10-31T02:45:50.072Z,97845.22
2022-10-31T02:48:22.608Z,97843.09
2022-10-31T02:50:57.934Z,97837.59
2022-10-31T02:53:24.998Z,97835.63
2022-10-31T02:55:59.611Z,97843.91
2022-10-31T02:58:30.361Z,97841.16
2022-10-31T03:01:03.283Z,97835.97
2022-10-31T03:04:07.381Z,97845.50
2022-10-31T03:06:56.148Z,97840.00
2022-10-31T03:09:37.648Z,97840.00
2022-10-31T03:12:16.981Z,97834.91
2022-10-31T03:14:57.703Z,97828.28
2022-10-31T03:17:51.942Z,97834.50
2022-10-31T03:20:26.402Z,97826.66
2022-10-31T03:22:56.087Z,97835.13
2022-10-31T03:25:23.840Z,97832.78
2022-10-31T03:27:52.352Z,97840.75
2022-10-31T03:30:18.813Z,97840.28
2022-10-31T03:32:50.847Z,97830.94
2022-10-31T03:35:20.592Z,97845.16
2022-10-31T03:37:50.403Z,97835.19
2022-10-31T03:40:20.298Z,97841.03
2022-10-31T03:42:54.387Z,97837.19
2022-10-31T03:45:30.825Z,97834.19
2022-10-31T03:47:59.809Z,97841.53
2022-10-31T03:50:40.074Z,97840.47
2022-10-31T03:53:14.408Z,97839.53
2022-10-31T03:56:10.984Z,97830.22
2022-10-31T03:58:44.943Z,97833.34
2022-10-31T04:01:16.808Z,97831.09
2022-10-31T04:03:45.125Z,97834.13
2022-10-31T04:06:14.583Z,97834.59
2022-10-31T04:08:57.129Z,97823.44
2022-10-31T04:11:28.988Z,97826.03
2022-10-31T04:13:56.683Z,97830.31
2022-10-31T04:16:25.802Z,97834.88
2022-10-31T04:18:53.049Z,97831.84
2022-10-31T04:21:19.525Z,97825.88
2022-10-31T04:23:45.985Z,97816.56
2022-10-31T04:26:13.174Z,97827.38
2022-10-31T04:28:39.794Z,97825.06
2022-10-31T04:31:06.302Z,97829.88
2022-10-31T04:33:32.817Z,97834.31
2022-10-31T04:35:59.287Z,97830.31
2022-10-31T04:38:25.782Z,97837.00
2022-10-31T04:40:52.375Z,97840.47
2022-10-31T04:45:50.281Z,97846.53
2022-10-31T04:48:16.930Z,97847.53
2022-10-31T04:50:43.994Z,97847.06
2022-10-31T04:53:10.469Z,97850.19
2022-10-31T04:55:37.396Z,97857.59
2022-10-31T04:58:04.607Z,97855.44
2022-10-31T05:00:31.467Z,97861.16
2022-10-31T05:02:59.663Z,97867.28
2022-10-31T05:05:30.068Z,97865.22
2022-10-31T05:07:56.882Z,97871.31
2022-10-31T05:10:25.983Z,97875.22
2022-10-31T05:12:54.845Z,97875.03
2022-10-31T05:15:23.719Z,97877.81
2022-10-31T05:17:50.818Z,97880.63
2022-10-31T05:20:19.090Z,97883.94
2022-10-31T05:22:47.894Z,97885.91
2022-10-31T05:25:14.894Z,97880.00
2022-10-31T05:27:46.174Z,97886.88
2022-10-31T05:30:15.216Z,97890.63
2022-10-31T05:32:47.305Z,97886.16
2022-10-31T05:35:17.956Z,97884.75
2022-10-31T05:37:44.508Z,97890.34
2022-10-31T05:40:13.098Z,97896.41
2022-10-31T05:42:41.066Z,97916.09
2022-10-31T05:45:14.407Z,97901.22
2022-10-31T05:47:41.815Z,97898.03
2022-10-31T05:50:09.748Z,97899.22
2022-10-31T05:52:36.474Z,97899.66
2022-10-31T05:55:06.633Z,97899.91
2022-10-31T05:57:33.996Z,97906.34
2022-10-31T06:00:00.944Z,97915.06
2022-10-31T06:02:27.717Z,97901.63
2022-10-31T06:04:54.708Z,97904.84
2022-10-31T06:07:24.386Z,97908.56
2022-10-31T06:09:51.030Z,97918.28
2022-10-31T06:12:17.503Z,97916.84
2022-10-31T06:14:43.990Z,97912.94
2022-10-31T06:17:10.511Z,97912.31
2022-10-31T06:19:39.410Z,97920.44
2022-10-31T06:22:05.946Z,97921.50
2022-10-31T06:24:32.562Z,97931.31
2022-10-31T06:26:59.081Z,97931.41
2022-10-31T06:29:25.566Z,97935.53
2022-10-31T06:31:52.923Z,97943.22
2022-10-31T06:34:22.476Z,97941.97
2022-10-31T06:36:49.032Z,97938.13
2022-10-31T06:39:18.805Z,97947.41
2022-10-31T06:41:47.738Z,97950.44
2022-10-31T06:44:14.201Z,97954.25
2022-10-31T06:46:40.907Z,97951.41
2022-10-31T06:49:07.700Z,97956.69
2022-10-31T06:51:34.191Z,97950.63
2022-10-31T06:54:00.874Z,97961.56
2022-10-31T06:56:27.341Z,97957.94
2022-10-31T06:58:53.939Z,97959.19
2022-10-31T07:01:20.718Z,97958.19
2022-10-31T07:03:47.282Z,97959.72
2022-10-31T07:06:13.989Z,97971.66
2022-10-31T07:08:40.640Z,97973.44
2022-10-31T07:11:07.118Z,97976.06
2022-10-31T07:13:33.578Z,97977.41
2022-10-31T07:16:04.279Z,97975.88
2022-10-31T07:18:34.765Z,97983.56
2022-10-31T07:21:03.908Z,97993.47
2022-10-31T07:23:32.862Z,97997.38
2022-10-31T07:26:00.093Z,97992.88
2022-10-31T07:28:29.498Z,98001.91
2022-10-31T07:30:59.267Z,98007.41
2022-10-31T07:33:26.049Z,98006.50
2022-10-31T07:35:57.555Z,98012.63
2022-10-31T07:38:24.170Z,98021.47
2022-10-31T07:40:52.612Z,98014.28
2022-10-31T07:43:19.895Z,98032.44
2022-10-31T07:45:51.277Z,98029.84
2022-10-31T07:48:20.660Z,98027.25
2022-10-31T07:50:52.662Z,98031.28
2022-10-31T07:53:19.338Z,98045.47
2022-10-31T07:55:46.255Z,98052.41
2022-10-31T07:58:15.709Z,98051.81
2022-10-31T08:00:44.772Z,98054.50
2022-10-31T08:03:14.000Z,98063.03
2022-10-31T08:05:41.371Z,98064.63
2022-10-31T08:08:08.776Z,98061.09
2022-10-31T08:10:36.059Z,98066.84
2022-10-31T08:13:10.837Z,98073.06
2022-10-31T08:15:38.142Z,98065.53
2022-10-31T08:18:08.359Z,98083.78
2022-10-31T08:20:34.954Z,98084.28
2022-10-31T08:23:05.964Z,98099.31
2022-10-31T08:25:38.241Z,98099.53
2022-10-31T08:28:06.322Z,98103.88
2022-10-31T08:30:34.914Z,98111.38
2022-10-31T08:33:16.364Z,98115.75
2022-10-31T08:35:43.111Z,98126.94
2022-10-31T08:38:11.383Z,98126.22
2022-10-31T08:40:38.723Z,98142.44
2022-10-31T08:43:07.429Z,98131.19
2022-10-31T08:45:35.235Z,98142.38
2022-10-31T08:48:05.113Z,98148.28
2022-10-31T08:50:34.812Z,98158.78
2022-10-31T08:53:06.883Z,98152.97
2022-10-31T08:55:37.039Z,98154.06
2022-10-31T08:58:05.765Z,98180.03
2022-10-31T09:00:33.291Z,98156.00
2022-10-31T09:03:02.243Z,98166.34
2022-10-31T09:05:29.719Z,98175.41
2022-10-31T09:07:58.069Z,98172.66
2022-10-31T09:10:25.481Z,98179.97
2022-10-31T09:12:58.720Z,98186.84
2022-10-31T09:15:27.109Z,98178.97
2022-10-31T09:17:53.753Z,98185.13
2022-10-31T09:20:21.094Z,98200.84
2022-10-31T09:22:47.643Z,98203.31
2022-10-31T09:25:14.357Z,98201.75
2022-10-31T09:27:40.834Z,98210.06
2022-10-31T09:30:08.011Z,98212.50
2022-10-31T09:32:34.470Z,98225.13
2022-10-31T09:35:00.971Z,98221.66
2022-10-31T09:37:27.519Z,98221.66
2022-10-31T09:39:53.994Z,98225.97
2022-10-31T09:42:26.478Z,98233.78
2022-10-31T09:45:05.174Z,98235.38
2022-10-31T09:48:06.728Z,98239.09
2022-10-31T09:50:39.644Z,98250.47
2022-10-31T09:53:23.973Z,98258.50
2022-10-31T09:55:52.125Z,98264.00
2022-10-31T09:58:26.041Z,98264.69
2022-10-31T10:00:54.389Z,98268.97
2022-10-31T10:03:33.022Z,98265.66
2022-10-31T10:06:08.019Z,98275.50
2022-10-31T10:08:38.101Z,98282.91
2022-10-31T10:11:19.535Z,98285.50
2022-10-31T10:14:00.922Z,98289.16
2022-10-31T10:16:47.696Z,98282.44
2022-10-31T10:19:35.569Z,98287.22
2022-10-31T10:22:32.839Z,98293.03
2022-10-31T10:25:05.347Z,98294.69
2022-10-31T10:28:01.227Z,98302.44
2022-10-31T10:30:34.945Z,98307.56
2022-10-31T10:33:08.457Z,98305.03
2022-10-31T10:35:40.610Z,98310.00
2022-10-31T10:38:35.564Z,98307.16
2022-10-31T10:41:06.095Z,98316.81
2022-10-31T10:43:36.431Z,98317.47
2022-10-31T10:46:12.181Z,98325.59
2022-10-31T10:48:52.864Z,98327.59
2022-10-31T10:54:54.360Z,98340.91
2022-10-31T10:57:28.656Z,98343.53
2022-10-31T10:59:55.417Z,98342.69
2022-10-31T11:02:27.807Z,98363.56
2022-10-31T11:04:57.994Z,98373.56
2022-10-31T11:07:24.648Z,98375.75
2022-10-31T11:09:51.241Z,98368.97
2022-10-31T11:12:25.643Z,98374.97
2022-10-31T11:14:56.544Z,98379.31
2022-10-31T11:17:32.982Z,98386.16
2022-10-31T11:20:17.959Z,98388.56
2022-10-31T11:22:47.939Z,98400.63
2022-10-31T11:25:20.290Z,98412.56
2022-10-31T11:27:47.650Z,98411.75
2022-10-31T11:30:15.400Z,98418.88
2022-10-31T11:32:49.982Z,98434.44
2022-10-31T11:35:18.973Z,98435.53
2022-10-31T11:37:47.702Z,98444.53
2022-10-31T11:40:24.077Z,98447.50
2022-10-31T11:42:55.368Z,98452.22
2022-10-31T11:45:24.782Z,98450.84
2022-10-31T11:47:59.227Z,98457.16
2022-10-31T11:50:33.804Z,98453.81
2022-10-31T11:53:01.859Z,98469.13
2022-10-31T11:55:34.719Z,98469.09
2022-10-31T11:58:01.613Z,98462.03
2022-10-31T12:00:31.870Z,98474.22
2022-10-31T12:03:24.848Z,98480.84
2022-10-31T12:05:59.478Z,98474.22
2022-10-31T12:08:31.764Z,98479.34
2022-10-31T12:11:04.126Z,98489.69
2022-10-31T12:13:51.627Z,98492.44
2022-10-31T12:16:21.055Z,98484.63
2022-10-31T12:18:59.635Z,98486.97
2022-10-31T12:21:46.822Z,98491.81
2022-10-31T12:24:35.999Z,98492.06
2022-10-31T12:27:17.845Z,98493.41
2022-10-31T12:30:22.870Z,98485.88
2022-10-31T12:33:16.504Z,98484.25
2022-10-31T12:35:54.911Z,98485.81
2022-10-31T12:38:40.143Z,98484.38
2022-10-31T12:41:18.999Z,98483.53
2022-10-31T12:44:32.897Z,98477.81
2022-10-31T12:47:27.057Z,98472.38
2022-10-31T12:50:17.537Z,98473.00
2022-10-31T12:52:44.015Z,98467.34
2022-10-31T12:55:18.052Z,98469.16
2022-10-31T12:57:50.237Z,98482.31
2022-10-31T13:00:19.163Z,98488.78
2022-10-31T13:03:20.381Z,98495.16
2022-10-31T13:05:53.663Z,98510.56
2022-10-31T13:08:31.101Z,98518.97
2022-10-31T13:11:12.422Z,98523.91
2022-10-31T13:13:45.720Z,98528.13
2022-10-31T13:16:22.620Z,98534.25
2022-10-31T13:18:56.646Z,98527.69
2022-10-31T13:21:28.052Z,98534.13
2022-10-31T13:23:59.183Z,98529.66
2022-10-31T13:26:39.317Z,98525.59
2022-10-31T13:29:34.126Z,98516.84
2022-10-31T13:32:05.149Z,98516.28
2022-10-31T13:34:34.239Z,98516.09
2022-10-31T13:37:19.280Z,98513.22
2022-10-31T13:40:02.774Z,98503.09
2022-10-31T13:43:00.253Z,98508.13
2022-10-31T13:45:27.742Z,98517.72
2022-10-31T13:48:16.195Z,98528.09
2022-10-31T13:50:44.906Z,98534.19
2022-10-31T13:53:19.526Z,98532.31
2022-10-31T13:55:48.785Z,98535.91
2022-10-31T13:58:28.166Z,98537.88
2022-10-31T14:01:17.888Z,98533.66
2022-10-31T14:06:41.141Z,98540.56
2022-10-31T14:09:24.543Z,98535.63
2022-10-31T14:11:52.036Z,98537.25
2022-10-31T14:14:20.818Z,98528.28
2022-10-31T14:16:55.719Z,98531.50
2022-10-31T14:19:23.272Z,98532.31
2022-10-31T14:21:51.470Z,98546.28
2022-10-31T14:24:24.191Z,98543.88
2022-10-31T14:26:59.617Z,98557.94
2022-10-31T14:29:31.317Z,98558.03
2022-10-31T14:32:07.143Z,98548.16
2022-10-31T14:34:36.449Z,98551.84
2022-10-31T14:37:32.305Z,98554.09
2022-10-31T14:40:16.904Z,98552.28
2022-10-31T14:42:52.446Z,98555.53
2022-10-31T14:45:50.014Z,98552.13
2022-10-31T14:48:44.884Z,98549.25
2022-10-31T14:51:19.150Z,98562.84
2022-10-31T14:53:58.565Z,98553.00
2022-10-31T14:56:34.253Z,98557.50
2022-10-31T14:59:11.108Z,98568.94
2022-10-31T15:01:40.378Z,98566.78
2022-10-31T15:04:29.182Z,98571.63
2022-10-31T15:07:18.154Z,98552.38
2022-10-31T15:10:01.223Z,98575.22
2022-10-31T15:12:33.225Z,98572.34
2022-10-31T15:15:15.681Z,98572.88
2022-10-31T15:17:47.308Z,98574.25
2022-10-31T15:20:20.441Z,98579.44
2022-10-31T15:22:47.365Z,98586.50
2022-10-31T15:25:22.964Z,98576.09
2022-10-31T15:27:51.218Z,98575.66
2022-10-31T15:30:25.385Z,98576.84
2022-10-31T15:32:58.231Z,98576.22
2022-10-31T15:35:28.701Z,98590.06
2022-10-31T15:37:56.314Z,98590.72
2022-10-31T15:40:25.562Z,98591.41
2022-10-31T15:42:58.739Z,98598.66
2022-10-31T15:45:30.269Z,98601.72
2022-10-31T15:48:18.009Z,98597.16
2022-10-31T15:50:57.298Z,98598.41
2022-10-31T15:53:31.475Z,98602.00
2022-10-31T15:56:01.986Z,98602.56
2022-10-31T15:58:29.762Z,98582.31
2022-10-31T16:01:06.121Z,98592.09
2022-10-31T16:03:34.429Z,98600.22
2022-10-31T16:06:03.740Z,98597.63
2022-10-31T16:08:30.369Z,98597.09
2022-10-31T16:11:00.456Z,98599.53
2022-10-31T16:13:32.935Z,98602.13
2022-10-31T16:16:33.546Z,98600.16
2022-10-31T16:18:53.495Z,98599.69
2022-10-31T16:21:36.374Z,98601.31
2022-10-31T16:24:13.457Z,98601.75
2022-10-31T16:26:40.249Z,98619.78
2022-10-31T16:29:33.233Z,98620.31
2022-10-31T16:31:59.929Z,98621.03
2022-10-31T16:34:27.214Z,98620.94
2022-10-31T16:36:54.549Z,98622.19
2022-10-31T16:39:21.341Z,98623.63
2022-10-31T16:41:51.287Z,98627.50
2022-10-31T16:44:25.647Z,98620.59
2022-10-31T16:47:14.192Z,98625.78
2022-10-31T16:49:41.575Z,98627.75
2022-10-31T16:52:08.153Z,98640.66
2022-10-31T16:54:35.035Z,98640.38
2022-10-31T16:57:03.455Z,98639.84
2022-10-31T16:59:32.426Z,98652.69
2022-10-31T17:01:59.520Z,98645.16
2022-10-31T17:04:26.251Z,98645.69
2022-10-31T17:06:52.859Z,98646.50
2022-10-31T17:09:19.497Z,98654.44
2022-10-31T17:11:50.726Z,98657.31
2022-10-31T17:14:18.670Z,98645.56
2022-10-31T17:16:45.271Z,98657.78
2022-10-31T17:19:12.690Z,98670.91
2022-10-31T17:21:40.150Z,98669.88
2022-10-31T17:24:09.130Z,98686.97
2022-10-31T17:26:35.829Z,98688.00
2022-10-31T17:29:02.373Z,98680.22
2022-10-31T17:31:34.040Z,98697.19
2022-10-31T17:34:02.644Z,98702.78
2022-10-31T17:36:30.572Z,98699.41
2022-10-31T17:38:57.431Z,98694.22
2022-10-31T17:41:24.126Z,98697.16
2022-10-31T17:43:58.536Z,98720.38
2022-10-31T17:46:25.326Z,98708.97
2022-10-31T17:48:52.058Z,98720.19
2022-10-31T17:51:18.567Z,98706.81
2022-10-31T17:53:45.121Z,98719.38
2022-10-31T17:56:12.247Z,98727.69
2022-10-31T17:58:38.947Z,98724.53
2022-10-31T18:01:10.990Z,98731.69
2022-10-31T18:03:39.741Z,98740.47
2022-10-31T18:06:07.538Z,98737.31
2022-10-31T18:08:36.450Z,98729.41
2022-10-31T18:11:08.214Z,98745.16
2022-10-31T18:13:35.814Z,98751.00
2022-10-31T18:16:02.946Z,98749.91
2022-10-31T18:18:29.591Z,98754.28
2022-10-31T18:21:02.255Z,98744.59
2022-10-31T18:23:31.866Z,98761.63
2022-10-31T18:25:58.380Z,98758.22
2022-10-31T18:28:24.982Z,98773.97
2022-10-31T18:30:51.932Z,98796.38
2022-10-31T18:33:18.535Z,98767.97
2022-10-31T18:35:45.140Z,98767.28
2022-10-31T18:38:11.830Z,98779.81
2022-10-31T18:40:38.671Z,98770.22
2022-10-31T18:43:05.427Z,98780.56
2022-10-31T18:45:45.920Z,98780.56
2022-10-31T18:48:14.591Z,98784.13
2022-10-31T18:50:41.773Z,98788.19
2022-10-31T18:53:08.313Z,98780.56
2022-10-31T18:55:45.360Z,98789.78
2022-10-31T18:58:16.083Z,98802.63
2022-10-31T19:00:47.984Z,98794.19
2022-10-31T19:03:15.712Z,98772.59
2022-10-31T19:05:43.115Z,98799.66
2022-10-31T19:08:10.208Z,98807.94
2022-10-31T19:10:42.601Z,98800.13
2022-10-31T19:13:09.316Z,98799.66
2022-10-31T19:15:36.720Z,98800.66
2022-10-31T19:18:04.064Z,98804.41
2022-10-31T19:20:31.659Z,98819.88
2022-10-31T19:22:58.376Z,98806.88
2022-10-31T19:25:25.187Z,98822.75
2022-10-31T19:27:51.781Z,98808.66
2022-10-31T19:30:18.399Z,98814.63
2022-10-31T19:32:45.014Z,98820.16
2022-10-31T19:35:11.731Z,98820.00
2022-10-31T19:37:40.117Z,98817.09
2022-10-31T19:40:09.129Z,98820.03
2022-10-31T19:42:38.239Z,98820.50
2022-10-31T19:45:05.401Z,98805.94
2022-10-31T19:47:32.043Z,98820.50
2022-10-31T19:49:58.937Z,98812.66
2022-10-31T19:52:26.024Z,98826.03
2022-10-31T19:54:52.677Z,98818.75
2022-10-31T19:57:35.806Z,98827.03
2022-10-31T20:00:06.496Z,98832.22
2022-10-31T20:02:33.101Z,98817.41
2022-10-31T20:05:00.411Z,98821.09
2022-10-31T20:07:26.983Z,98817.41
2022-10-31T20:09:53.995Z,98814.28
2022-10-31T20:12:20.842Z,98811.25
2022-10-31T20:14:49.332Z,98823.75
2022-10-31T20:17:16.076Z,98819.34
2022-10-31T20:19:42.743Z,98826.34
2022-10-31T20:22:10.944Z,98829.28
2022-10-31T20:24:37.611Z,98830.56
2022-10-31T20:27:04.326Z,98842.56
2022-10-31T20:29:30.955Z,98840.66
2022-10-31T20:31:58.102Z,98841.75
2022-10-31T20:34:24.718Z,98841.81
2022-10-31T20:36:51.303Z,98850.56
2022-10-31T20:39:17.917Z,98853.47
2022-10-31T20:41:44.489Z,98860.94
2022-10-31T20:44:11.152Z,98856.88
2022-10-31T20:46:38.023Z,98849.78
2022-10-31T20:49:04.721Z,98861.44
2022-10-31T20:51:31.359Z,98871.81
2022-10-31T20:53:59.679Z,98865.00
2022-10-31T20:56:27.838Z,98864.38
2022-10-31T20:58:56.198Z,98860.78
2022-10-31T21:01:31.157Z,98866.66
2022-10-31T21:03:58.104Z,98865.06
2022-10-31T21:06:25.717Z,98875.44
2022-10-31T21:08:53.248Z,98877.41
2022-10-31T21:11:23.112Z,98878.09
2022-10-31T21:13:50.859Z,98896.91
2022-10-31T21:16:24.107Z,98884.69
2022-10-31T21:18:51.980Z,98893.97
2022-10-31T21:21:30.688Z,98896.22
2022-10-31T21:24:01.690Z,98904.34
2022-10-31T21:26:30.482Z,98909.03
2022-10-31T21:28:58.729Z,98908.91
2022-10-31T21:31:26.099Z,98909.94
2022-10-31T21:33:52.691Z,98904.41
2022-10-31T21:36:19.329Z,98906.53
2022-10-31T21:38:51.173Z,98918.03
2022-10-31T21:41:18.902Z,98911.41
2022-10-31T21:43:47.344Z,98913.22
2022-10-31T21:46:16.536Z,98925.53
2022-10-31T21:48:44.438Z,98918.84
2022-10-31T21:51:13.515Z,98920.97
2022-10-31T21:53:40.460Z,98926.44
2022-10-31T21:56:07.728Z,98918.38
2022-10-31T21:58:37.645Z,98930.06
2022-10-31T22:01:05.425Z,98937.47
2022-10-31T22:03:39.662Z,98944.47
2022-10-31T22:06:08.456Z,98927.78
2022-10-31T22:08:36.120Z,98939.97
2022-10-31T22:11:04.293Z,98938.81
2022-10-31T22:13:31.931Z,98942.09
2022-10-31T22:16:02.499Z,98940.31
2022-10-31T22:18:29.507Z,98939.97
2022-10-31T22:21:08.185Z,98955.72
2022-10-31T22:23:34.848Z,98963.00
2022-10-31T22:26:06.969Z,98958.97
2022-10-31T22:28:34.734Z,98957.50
2022-10-31T22:31:09.501Z,98964.66
2022-10-31T22:33:36.281Z,98970.69
2022-10-31T22:36:05.524Z,98963.38
2022-10-31T22:38:33.435Z,98968.22
2022-10-31T22:41:01.198Z,98972.09
2022-10-31T22:43:28.005Z,98974.56
2022-10-31T22:45:59.282Z,98966.78
2022-10-31T22:48:29.122Z,98964.03
2022-10-31T22:50:56.229Z,98959.16
2022-10-31T22:53:22.724Z,98968.06
2022-10-31T22:55:52.354Z,98980.09
2022-10-31T22:58:18.845Z,98980.09
2022-10-31T23:00:45.409Z,98977.00
2022-10-31T23:03:12.107Z,98983.81
2022-10-31T23:05:38.621Z,98982.22
2022-10-31T23:08:05.619Z,98980.09
2022-10-31T23:10:33.007Z,98988.22
2022-10-31T23:13:02.258Z,98984.97
2022-10-31T23:15:28.804Z,98991.16
2022-10-31T23:17:57.260Z,98997.78
2022-10-31T23:20:24.221Z,98990.97
2022-10-31T23:22:50.800Z,98996.66
2022-10-31T23:25:17.419Z,98993.91
2022-10-31T23:27:43.937Z,98986.28
2022-10-31T23:30:10.698Z,99000.25
2022-10-31T23:32:38.058Z,99001.22
2022-10-31T23:35:08.967Z,99008.34
2022-10-31T23:37:37.668Z,99007.06
2022-10-31T23:40:05.839Z,99009.50
2022-10-31T23:42:32.447Z,99022.47
2022-10-31T23:44:58.927Z,99018.91
2022-10-31T23:47:26.302Z,99021.19
2022-10-31T23:49:52.820Z,99030.59
2022-10-31T23:52:19.452Z,99020.22
2022-10-31T23:54:46.047Z,99023.28
2022-10-31T23:57:14.688Z,99051.03
2022-10-31T23:59:41.510Z,99030.09
